createdAt,value
2022-12-14T00:01:27.972Z,4.73
2022-12-14T00:03:55.194Z,4.37
2022-12-14T00:06:22.829Z,3.80
2022-12-14T00:08:50.478Z,4.77
2022-12-14T00:11:18.877Z,4.57
2022-12-14T00:13:45.199Z,3.80
2022-12-14T00:16:17.525Z,4.30
2022-12-14T00:18:44.642Z,4.17
2022-12-14T00:21:12.655Z,3.97
2022-12-14T00:23:40.027Z,4.07
2022-12-14T00:26:07.884Z,4.37
2022-12-14T00:28:33.987Z,3.60
2022-12-14T00:31:00.999Z,4.10
2022-12-14T00:33:27.827Z,4.00
2022-12-14T00:35:53.935Z,3.97
2022-12-14T00:38:20.098Z,3.83
2022-12-14T00:40:46.247Z,4.00
2022-12-14T00:43:12.348Z,3.77
2022-12-14T00:45:39.788Z,4.10
2022-12-14T00:48:05.964Z,4.10
2022-12-14T00:50:32.648Z,3.83
2022-12-14T00:52:58.767Z,4.50
2022-12-14T00:55:24.880Z,3.47
2022-12-14T00:57:51.003Z,4.00
2022-12-14T01:00:17.452Z,3.47
2022-12-14T01:02:43.764Z,3.87
2022-12-14T01:05:10.295Z,3.67
2022-12-14T01:07:37.055Z,3.57
2022-12-14T01:10:03.545Z,3.80
2022-12-14T01:12:29.730Z,3.60
2022-12-14T01:14:55.841Z,4.20
2022-12-14T01:17:21.961Z,3.80
2022-12-14T01:19:49.073Z,4.07
2022-12-14T01:22:15.794Z,4.03
2022-12-14T01:24:43.949Z,4.07
2022-12-14T01:27:10.149Z,3.87
2022-12-14T01:29:36.554Z,3.50
2022-12-14T01:32:02.966Z,3.53
2022-12-14T01:34:29.143Z,4.07
2022-12-14T01:36:55.269Z,3.80
2022-12-14T01:39:21.396Z,4.03
2022-12-14T01:41:49.432Z,4.43
2022-12-14T01:44:52.803Z,3.97
2022-12-14T01:47:22.838Z,3.67
2022-12-14T01:49:51.623Z,3.87
2022-12-14T01:52:20.978Z,3.53
2022-12-14T01:54:50.000Z,3.60
2022-12-14T01:57:18.926Z,3.50
2022-12-14T01:59:46.079Z,3.60
2022-12-14T02:02:13.700Z,3.10
2022-12-14T02:04:43.512Z,3.77
2022-12-14T02:07:10.051Z,3.70
2022-12-14T02:09:39.129Z,3.80
2022-12-14T02:12:08.525Z,3.50
2022-12-14T02:14:35.429Z,3.63
2022-12-14T02:17:01.715Z,3.67
2022-12-14T02:19:27.843Z,3.67
2022-12-14T02:22:10.817Z,3.53
2022-12-14T02:24:58.714Z,3.63
2022-12-14T02:27:42.773Z,3.17
2022-12-14T02:30:12.178Z,3.60
2022-12-14T02:33:13.500Z,3.37
2022-12-14T02:35:45.875Z,3.60
2022-12-14T02:38:20.753Z,3.27
2022-12-14T02:40:54.082Z,3.70
2022-12-14T02:43:25.485Z,3.77
2022-12-14T02:45:56.570Z,3.03
2022-12-14T02:48:25.051Z,3.10
2022-12-14T02:50:54.514Z,3.83
2022-12-14T02:53:25.904Z,3.53
2022-12-14T02:55:57.166Z,3.67
2022-12-14T02:58:26.615Z,3.60
2022-12-14T03:00:54.228Z,3.57
2022-12-14T03:03:20.426Z,3.10
2022-12-14T03:05:55.303Z,3.40
2022-12-14T03:08:21.797Z,3.40
2022-12-14T03:10:50.280Z,3.37
2022-12-14T03:13:19.344Z,3.40
2022-12-14T03:15:48.283Z,3.30
2022-12-14T03:18:17.467Z,3.33
2022-12-14T03:20:44.542Z,3.37
2022-12-14T03:23:12.890Z,3.20
2022-12-14T03:25:45.479Z,2.97
2022-12-14T03:28:18.365Z,3.23
2022-12-14T03:31:03.811Z,3.57
2022-12-14T03:33:31.307Z,3.30
2022-12-14T03:36:02.247Z,3.37
2022-12-14T03:38:33.171Z,3.13
2022-12-14T03:41:05.495Z,3.60
2022-12-14T03:43:36.491Z,2.97
2022-12-14T03:46:07.331Z,3.13
2022-12-14T03:48:38.743Z,3.27
2022-12-14T03:51:09.435Z,3.43
2022-12-14T03:53:40.061Z,3.43
2022-12-14T03:56:09.035Z,3.60
2022-12-14T03:58:38.423Z,3.53
2022-12-14T04:01:07.872Z,3.67
2022-12-14T04:03:43.006Z,3.40
2022-12-14T04:06:16.351Z,3.43
2022-12-14T04:08:46.919Z,3.23
2022-12-14T04:11:33.747Z,3.70
2022-12-14T04:14:21.633Z,3.67
2022-12-14T04:17:09.066Z,3.10
2022-12-14T04:19:39.503Z,3.33
2022-12-14T04:22:07.251Z,3.40
2022-12-14T04:24:55.665Z,3.20
2022-12-14T04:27:29.453Z,3.40
2022-12-14T04:29:56.483Z,3.50
2022-12-14T04:32:26.897Z,3.83
2022-12-14T04:34:56.903Z,3.30
2022-12-14T04:37:24.527Z,3.43
2022-12-14T04:39:52.496Z,3.33
2022-12-14T04:42:20.297Z,2.87
2022-12-14T04:44:48.695Z,3.43
2022-12-14T04:47:16.850Z,3.63
2022-12-14T04:49:49.256Z,3.63
2022-12-14T04:52:19.793Z,3.67
2022-12-14T04:54:49.056Z,3.07
2022-12-14T04:57:19.465Z,3.80
2022-12-14T04:59:46.333Z,3.03
2022-12-14T05:02:18.759Z,3.23
2022-12-14T05:04:54.487Z,3.40
2022-12-14T05:07:28.750Z,3.57
2022-12-14T05:09:57.443Z,3.13
2022-12-14T05:12:27.092Z,3.03
2022-12-14T05:15:02.170Z,3.60
2022-12-14T05:17:28.548Z,3.00
2022-12-14T05:19:54.698Z,2.90
2022-12-14T05:22:20.997Z,3.40
2022-12-14T05:24:47.826Z,2.80
2022-12-14T05:27:14.123Z,3.23
2022-12-14T05:29:40.317Z,3.00
2022-12-14T05:32:06.518Z,3.00
2022-12-14T05:34:33.341Z,3.33
2022-12-14T05:36:59.579Z,3.27
2022-12-14T05:39:25.774Z,2.80
2022-12-14T05:41:52.857Z,3.53
2022-12-14T05:44:19.094Z,2.93
2022-12-14T05:46:45.279Z,3.03
2022-12-14T05:49:11.674Z,2.87
2022-12-14T05:51:37.962Z,3.07
2022-12-14T05:54:04.551Z,3.50
2022-12-14T05:56:30.925Z,2.90
2022-12-14T05:58:57.714Z,2.97
2022-12-14T06:01:23.915Z,3.30
2022-12-14T06:03:51.375Z,3.47
2022-12-14T06:06:17.566Z,3.03
2022-12-14T06:08:45.226Z,3.30
2022-12-14T06:11:12.699Z,3.37
2022-12-14T06:13:39.794Z,3.20
2022-12-14T06:16:08.060Z,3.30
2022-12-14T06:18:34.272Z,3.20
2022-12-14T06:21:00.515Z,3.17
2022-12-14T06:23:27.224Z,3.73
2022-12-14T06:25:53.982Z,3.50
2022-12-14T06:28:20.314Z,3.30
2022-12-14T06:30:47.386Z,3.13
2022-12-14T06:33:14.622Z,3.50
2022-12-14T06:35:42.338Z,3.57
2022-12-14T06:38:08.570Z,3.30
2022-12-14T06:40:34.724Z,3.93
2022-12-14T06:43:00.875Z,3.23
2022-12-14T06:45:27.818Z,3.57
2022-12-14T06:47:53.950Z,3.27
2022-12-14T06:50:20.750Z,3.63
2022-12-14T06:52:49.009Z,3.23
2022-12-14T06:55:15.463Z,3.93
2022-12-14T06:57:41.715Z,4.20
2022-12-14T07:00:11.367Z,4.27
2022-12-14T07:02:37.831Z,3.77
2022-12-14T07:05:04.723Z,3.80
2022-12-14T07:07:32.371Z,4.10
2022-12-14T07:09:58.612Z,3.90
2022-12-14T07:12:24.951Z,4.17
2022-12-14T07:14:51.058Z,3.77
2022-12-14T07:17:17.287Z,4.13
2022-12-14T07:19:43.550Z,4.20
2022-12-14T07:22:09.675Z,4.27
2022-12-14T07:24:36.671Z,4.60
2022-12-14T07:27:03.064Z,4.37
2022-12-14T07:29:34.346Z,4.63
2022-12-14T07:32:01.040Z,4.70
2022-12-14T07:34:27.354Z,4.63
2022-12-14T07:36:56.145Z,4.13
2022-12-14T07:39:22.349Z,4.37
2022-12-14T07:41:49.978Z,4.20
2022-12-14T07:44:16.686Z,4.57
2022-12-14T07:46:43.047Z,4.00
2022-12-14T07:49:09.338Z,4.20
2022-12-14T07:51:37.222Z,4.70
2022-12-14T07:54:05.343Z,4.87
2022-12-14T07:56:33.532Z,5.43
2022-12-14T07:59:01.835Z,4.80
2022-12-14T08:01:29.616Z,5.00
2022-12-14T08:03:57.317Z,4.90
2022-12-14T08:06:25.885Z,4.30
2022-12-14T08:08:52.810Z,4.77
2022-12-14T08:11:21.395Z,4.80
2022-12-14T08:13:47.759Z,4.37
2022-12-14T08:16:16.051Z,4.87
2022-12-14T08:18:42.680Z,4.73
2022-12-14T08:21:10.508Z,4.63
2022-12-14T08:23:36.920Z,4.67
2022-12-14T08:26:04.850Z,4.80
2022-12-14T08:28:32.248Z,4.40
2022-12-14T08:31:03.883Z,4.00
2022-12-14T08:33:30.963Z,4.57
2022-12-14T08:36:04.398Z,4.50
2022-12-14T08:38:30.533Z,4.33
2022-12-14T08:41:01.482Z,5.13
2022-12-14T08:43:27.931Z,4.60
2022-12-14T08:45:54.292Z,4.73
2022-12-14T08:48:20.484Z,5.00
2022-12-14T08:50:49.940Z,4.57
2022-12-14T08:53:16.366Z,5.10
2022-12-14T08:55:42.632Z,4.50
2022-12-14T08:58:09.654Z,4.27
2022-12-14T09:00:37.833Z,4.47
2022-12-14T09:03:04.129Z,4.57
2022-12-14T09:05:30.643Z,4.43
2022-12-14T09:07:57.559Z,4.93
2022-12-14T09:10:23.687Z,4.73
2022-12-14T09:12:50.331Z,4.23
2022-12-14T09:15:16.579Z,4.83
2022-12-14T09:17:42.725Z,4.90
2022-12-14T09:20:09.767Z,5.37
2022-12-14T09:22:35.871Z,4.90
2022-12-14T09:25:03.782Z,4.67
2022-12-14T09:27:29.982Z,4.50
2022-12-14T09:29:56.127Z,4.93
2022-12-14T09:32:22.856Z,4.53
2022-12-14T09:34:48.988Z,4.93
2022-12-14T09:37:15.349Z,4.70
2022-12-14T09:39:41.504Z,4.77
2022-12-14T09:42:16.326Z,5.43
2022-12-14T09:44:50.271Z,5.03
2022-12-14T09:47:18.954Z,5.07
2022-12-14T09:49:48.043Z,5.37
2022-12-14T09:52:17.730Z,5.83
2022-12-14T09:54:44.971Z,5.70
2022-12-14T09:57:27.330Z,5.80
2022-12-14T09:59:53.965Z,5.93
2022-12-14T10:02:34.164Z,5.57
2022-12-14T10:05:20.019Z,5.63
2022-12-14T10:07:53.944Z,5.53
2022-12-14T10:10:25.701Z,6.47
2022-12-14T10:12:59.442Z,6.23
2022-12-14T10:15:30.029Z,10.13
2022-12-14T10:18:49.472Z,4.80
2022-12-14T10:21:11.917Z,6.93
2022-12-14T10:23:39.813Z,5.80
2022-12-14T10:26:12.188Z,6.80
2022-12-14T10:28:45.532Z,6.13
2022-12-14T10:31:16.249Z,5.97
2022-12-14T10:33:44.680Z,6.00
2022-12-14T10:36:18.281Z,7.23
2022-12-14T10:38:49.175Z,6.17
2022-12-14T10:41:20.401Z,13.37
2022-12-14T10:43:52.516Z,6.33
2022-12-14T10:46:28.961Z,15.30
2022-12-14T10:48:58.618Z,14.17
2022-12-14T10:51:28.430Z,19.37
2022-12-14T10:53:57.625Z,12.33
2022-12-14T10:56:26.354Z,7.73
2022-12-14T11:00:03.048Z,9.80
2022-12-14T11:02:31.653Z,7.70
2022-12-14T11:04:59.172Z,7.90
2022-12-14T11:07:36.387Z,6.07
2022-12-14T11:10:14.809Z,5.47
2022-12-14T11:12:41.924Z,5.70
2022-12-14T11:15:23.466Z,6.10
2022-12-14T11:17:59.944Z,5.70
2022-12-14T11:20:26.184Z,6.33
2022-12-14T11:22:54.424Z,6.03
2022-12-14T11:25:29.092Z,6.47
2022-12-14T11:27:55.455Z,6.30
2022-12-14T11:30:21.653Z,6.67
2022-12-14T11:32:48.359Z,7.27
2022-12-14T11:35:16.862Z,6.37
2022-12-14T11:37:43.039Z,6.33
2022-12-14T11:40:19.323Z,6.90
2022-12-14T11:42:47.553Z,7.17
2022-12-14T11:45:29.803Z,7.27
2022-12-14T11:48:19.403Z,7.67
2022-12-14T11:50:47.291Z,8.77
2022-12-14T11:53:15.426Z,7.93
2022-12-14T11:55:44.785Z,6.77
2022-12-14T11:58:14.350Z,8.50
2022-12-14T12:00:47.148Z,7.43
2022-12-14T12:03:15.721Z,7.60
2022-12-14T12:05:43.427Z,7.40
2022-12-14T12:08:19.138Z,7.00
2022-12-14T12:10:50.028Z,8.33
2022-12-14T12:13:21.205Z,7.07
2022-12-14T12:15:50.017Z,7.03
2022-12-14T12:18:19.883Z,6.90
2022-12-14T12:20:50.852Z,7.40
2022-12-14T12:23:20.494Z,7.37
2022-12-14T12:25:48.331Z,7.10
2022-12-14T12:28:17.968Z,7.43
2022-12-14T12:30:47.565Z,7.63
2022-12-14T12:33:22.151Z,7.50
2022-12-14T12:35:50.055Z,7.83
2022-12-14T12:38:23.763Z,8.00
2022-12-14T12:40:55.980Z,8.60
2022-12-14T12:43:26.169Z,7.50
2022-12-14T12:45:55.605Z,8.67
2022-12-14T12:48:24.599Z,8.23
2022-12-14T12:50:54.363Z,8.30
2022-12-14T12:53:27.388Z,7.80
2022-12-14T12:55:56.699Z,7.40
2022-12-14T12:58:25.766Z,8.07
2022-12-14T13:00:54.882Z,8.13
2022-12-14T13:03:26.004Z,8.40
2022-12-14T13:05:53.705Z,8.60
2022-12-14T13:08:25.678Z,8.70
2022-12-14T13:13:42.709Z,8.03
2022-12-14T13:16:13.441Z,8.67
2022-12-14T13:18:59.598Z,9.27
2022-12-14T13:21:30.876Z,9.07
2022-12-14T13:23:57.664Z,8.77
2022-12-14T13:29:39.379Z,8.80
2022-12-14T13:32:09.864Z,8.60
2022-12-14T13:34:45.272Z,8.10
2022-12-14T13:37:26.613Z,8.20
2022-12-14T13:40:21.847Z,8.47
2022-12-14T13:42:53.510Z,8.07
2022-12-14T13:45:20.892Z,8.23
2022-12-14T13:47:50.628Z,8.77
2022-12-14T13:50:54.238Z,8.70
2022-12-14T13:53:14.883Z,9.27
2022-12-14T13:55:48.538Z,9.23
2022-12-14T13:58:18.444Z,8.40
2022-12-14T14:00:59.738Z,8.83
2022-12-14T14:03:51.432Z,9.30
2022-12-14T14:06:23.357Z,8.70
2022-12-14T14:08:51.267Z,9.00
2022-12-14T14:11:55.750Z,10.47
2022-12-14T14:14:34.631Z,9.33
2022-12-14T14:17:06.165Z,9.80
2022-12-14T14:19:38.503Z,9.27
2022-12-14T14:22:23.929Z,9.50
2022-12-14T14:24:54.808Z,8.83
2022-12-14T14:27:23.158Z,9.20
2022-12-14T14:29:50.319Z,9.40
2022-12-14T14:32:39.487Z,9.77
2022-12-14T14:35:08.346Z,9.17
2022-12-14T14:37:35.850Z,9.67
2022-12-14T14:40:18.704Z,9.47
2022-12-14T14:42:51.310Z,9.27
2022-12-14T14:45:30.894Z,9.20
2022-12-14T14:47:59.115Z,8.80
2022-12-14T14:50:29.807Z,9.00
2022-12-14T14:53:11.485Z,8.87
2022-12-14T14:56:19.045Z,9.07
2022-12-14T14:58:45.845Z,9.13
2022-12-14T15:01:23.852Z,9.40
2022-12-14T15:03:55.782Z,10.27
2022-12-14T15:06:24.195Z,9.97
2022-12-14T15:08:55.650Z,9.37
2022-12-14T15:11:23.887Z,10.00
2022-12-14T15:13:53.781Z,9.90
2022-12-14T15:16:21.964Z,9.33
2022-12-14T15:18:48.866Z,9.60
2022-12-14T15:21:16.087Z,9.93
2022-12-14T15:23:44.777Z,9.57
2022-12-14T15:26:19.403Z,9.10
2022-12-14T15:28:50.015Z,8.67
2022-12-14T15:31:18.141Z,8.83
2022-12-14T15:33:47.140Z,9.47
2022-12-14T15:36:15.893Z,9.40
2022-12-14T15:38:51.458Z,8.97
2022-12-14T15:41:18.017Z,9.70
2022-12-14T15:43:46.081Z,9.70
2022-12-14T15:46:15.704Z,10.33
2022-12-14T15:48:42.732Z,10.53
2022-12-14T15:51:12.429Z,10.10
2022-12-14T15:53:40.764Z,9.97
2022-12-14T15:56:16.649Z,10.47
2022-12-14T15:58:43.286Z,10.23
2022-12-14T16:01:12.567Z,9.60
2022-12-14T16:03:41.172Z,9.60
2022-12-14T16:06:09.196Z,10.37
2022-12-14T16:08:37.188Z,10.63
2022-12-14T16:11:05.648Z,10.00
2022-12-14T16:13:35.047Z,11.20
2022-12-14T16:16:05.625Z,11.03
2022-12-14T16:18:32.028Z,10.97
2022-12-14T16:21:00.592Z,10.70
2022-12-14T16:23:32.297Z,10.57
2022-12-14T16:26:00.493Z,11.10
2022-12-14T16:28:30.251Z,11.20
2022-12-14T16:30:59.672Z,10.07
2022-12-14T16:33:26.354Z,11.67
2022-12-14T16:36:01.288Z,10.60
2022-12-14T16:38:27.871Z,11.57
2022-12-14T16:40:56.886Z,11.40
2022-12-14T16:43:30.758Z,10.97
2022-12-14T16:46:18.132Z,10.40
2022-12-14T16:48:50.199Z,10.93
2022-12-14T16:51:58.243Z,11.20
2022-12-14T16:54:23.187Z,11.13
2022-12-14T16:56:54.892Z,11.60
2022-12-14T16:59:23.440Z,11.17
2022-12-14T17:01:50.535Z,11.70
2022-12-14T17:04:18.081Z,12.83
2022-12-14T17:06:46.452Z,12.23
2022-12-14T17:09:20.301Z,11.80
2022-12-14T17:11:47.167Z,12.33
2022-12-14T17:14:14.600Z,12.90
2022-12-14T17:16:41.575Z,13.80
2022-12-14T17:19:10.053Z,13.03
2022-12-14T17:21:36.195Z,12.77
2022-12-14T17:24:02.488Z,15.87
2022-12-14T17:26:30.929Z,15.63
2022-12-14T17:28:57.767Z,14.60
2022-12-14T17:31:26.127Z,16.70
2022-12-14T17:33:53.147Z,16.17
2022-12-14T17:36:19.286Z,15.70
2022-12-14T17:38:45.497Z,14.83
2022-12-14T17:41:16.447Z,14.00
2022-12-14T17:43:49.931Z,13.23
2022-12-14T17:46:19.952Z,12.47
2022-12-14T17:48:46.774Z,11.33
2022-12-14T17:51:18.172Z,11.20
2022-12-14T17:53:44.331Z,11.63
2022-12-14T17:56:10.561Z,11.67
2022-12-14T17:58:36.727Z,11.53
2022-12-14T18:01:03.774Z,10.80
2022-12-14T18:03:32.124Z,11.37
2022-12-14T18:05:59.758Z,11.23
2022-12-14T18:08:26.331Z,11.27
2022-12-14T18:10:54.943Z,11.70
2022-12-14T18:13:21.174Z,10.90
2022-12-14T18:15:50.399Z,11.33
2022-12-14T18:18:16.995Z,11.17
2022-12-14T18:20:44.508Z,12.30
2022-12-14T18:23:13.204Z,11.73
2022-12-14T18:25:43.424Z,11.47
2022-12-14T18:28:14.268Z,10.67
2022-12-14T18:30:49.043Z,11.80
2022-12-14T18:33:17.771Z,11.00
2022-12-14T18:35:44.751Z,11.43
2022-12-14T18:38:12.014Z,10.67
2022-12-14T18:40:38.637Z,10.63
2022-12-14T18:43:04.804Z,11.13
2022-12-14T18:45:33.255Z,11.53
2022-12-14T18:48:00.368Z,12.57
2022-12-14T18:50:28.000Z,11.70
2022-12-14T18:52:54.813Z,10.60
2022-12-14T18:55:23.620Z,11.93
2022-12-14T18:57:52.026Z,12.23
2022-12-14T19:00:21.268Z,11.97
2022-12-14T19:02:49.569Z,12.13
2022-12-14T19:05:17.150Z,11.80
2022-12-14T19:07:43.972Z,12.43
2022-12-14T19:10:15.197Z,12.03
2022-12-14T19:12:42.250Z,14.47
2022-12-14T19:15:11.728Z,13.33
2022-12-14T19:17:37.878Z,15.27
2022-12-14T19:20:04.569Z,16.67
2022-12-14T19:22:30.898Z,15.77
2022-12-14T19:24:57.041Z,16.20
2022-12-14T19:27:58.814Z,16.53
2022-12-14T19:30:12.944Z,16.03
2022-12-14T19:32:39.213Z,15.30
2022-12-14T19:35:05.803Z,14.70
2022-12-14T19:37:32.627Z,15.90
2022-12-14T19:40:01.869Z,15.40
2022-12-14T19:42:30.257Z,14.47
2022-12-14T19:44:56.760Z,13.90
2022-12-14T19:47:24.303Z,15.90
2022-12-14T19:49:50.604Z,14.60
2022-12-14T19:52:17.310Z,15.57
2022-12-14T19:54:44.314Z,15.37
2022-12-14T19:57:11.277Z,16.60
2022-12-14T19:59:37.745Z,13.53
2022-12-14T20:02:04.222Z,13.23
2022-12-14T20:04:31.508Z,13.97
2022-12-14T20:06:57.994Z,15.03
2022-12-14T20:09:24.308Z,14.17
2022-12-14T20:11:50.407Z,14.40
2022-12-14T20:14:16.947Z,15.13
2022-12-14T20:16:43.486Z,14.63
2022-12-14T20:19:11.739Z,13.17
2022-12-14T20:21:38.744Z,13.13
2022-12-14T20:24:05.668Z,14.00
2022-12-14T20:26:31.806Z,13.83
2022-12-14T20:29:00.376Z,15.23
2022-12-14T20:31:26.685Z,14.77
2022-12-14T20:33:53.367Z,13.87
2022-12-14T20:36:21.312Z,13.77
2022-12-14T20:38:53.430Z,14.80
2022-12-14T20:41:19.608Z,14.27
2022-12-14T20:43:45.762Z,12.93
2022-12-14T20:46:24.202Z,14.10
2022-12-14T20:48:50.407Z,15.17
2022-12-14T20:51:16.536Z,14.90
2022-12-14T20:53:43.103Z,15.07
2022-12-14T20:56:16.126Z,15.40
2022-12-14T20:58:45.543Z,15.23
2022-12-14T21:01:12.665Z,15.33
2022-12-14T21:03:39.208Z,16.97
2022-12-14T21:06:05.683Z,15.80
2022-12-14T21:08:51.850Z,15.37
2022-12-14T21:11:36.955Z,16.13
2022-12-14T21:14:03.316Z,16.13
2022-12-14T21:16:29.485Z,15.57
2022-12-14T21:18:55.632Z,15.93
2022-12-14T21:21:21.855Z,14.70
2022-12-14T21:23:48.046Z,14.93
2022-12-14T21:26:15.591Z,15.73
2022-12-14T21:28:42.343Z,15.13
2022-12-14T21:31:15.355Z,14.20
2022-12-14T21:33:46.393Z,15.13
2022-12-14T21:36:15.678Z,14.57
2022-12-14T21:38:41.814Z,15.97
2022-12-14T21:41:26.082Z,16.00
2022-12-14T21:43:52.995Z,16.23
2022-12-14T21:46:19.909Z,15.30
2022-12-14T21:48:46.166Z,16.47
2022-12-14T21:51:15.747Z,17.30
2022-12-14T21:53:57.719Z,15.60
2022-12-14T21:56:43.643Z,15.97
2022-12-14T21:59:10.643Z,16.07
2022-12-14T22:01:37.000Z,16.20
2022-12-14T22:04:03.828Z,15.77
2022-12-14T22:06:29.974Z,14.73
2022-12-14T22:08:56.139Z,14.77
2022-12-14T22:11:22.285Z,16.10
2022-12-14T22:13:48.426Z,15.67
2022-12-14T22:16:15.362Z,16.80
2022-12-14T22:18:41.475Z,16.33
2022-12-14T22:21:07.625Z,16.50
2022-12-14T22:23:35.158Z,16.80
2022-12-14T22:26:04.691Z,16.73
2022-12-14T22:28:30.968Z,15.97
2022-12-14T22:31:00.931Z,17.23
2022-12-14T22:33:28.074Z,15.77
2022-12-14T22:35:54.550Z,16.20
2022-12-14T22:38:20.684Z,16.30
2022-12-14T22:40:46.822Z,15.77
2022-12-14T22:43:13.454Z,16.17
2022-12-14T22:45:39.666Z,16.77
2022-12-14T22:48:06.113Z,16.20
2022-12-14T22:50:32.895Z,16.33
2022-12-14T22:52:59.228Z,16.00
2022-12-14T22:55:25.933Z,16.83
2022-12-14T22:57:52.308Z,16.97
2022-12-14T23:00:18.434Z,16.80
2022-12-14T23:02:48.089Z,16.17
2022-12-14T23:05:15.517Z,16.83
2022-12-14T23:07:42.335Z,16.53
2022-12-14T23:10:27.325Z,16.17
2022-12-14T23:13:11.684Z,17.17
2022-12-14T23:15:56.085Z,17.03
2022-12-14T23:18:40.393Z,16.27
2022-12-14T23:21:26.163Z,16.10
2022-12-14T23:24:11.303Z,17.87
2022-12-14T23:26:55.559Z,16.90
2022-12-14T23:29:39.877Z,16.03
2022-12-14T23:32:24.124Z,17.13
2022-12-14T23:35:08.481Z,17.63
2022-12-14T23:37:52.820Z,17.30
2022-12-14T23:40:38.117Z,17.00
2022-12-14T23:43:26.724Z,16.40
2022-12-14T23:46:11.438Z,16.67
2022-12-14T23:48:55.786Z,17.23
2022-12-14T23:51:40.120Z,16.97
2022-12-14T23:54:24.530Z,16.37
2022-12-14T23:57:09.688Z,16.00
2022-12-14T23:59:54.100Z,16.80
